Time;durP1;ratioP1;P1;durP2;ratioP2;P2;SDS_P1;SDS_P2;PMS_P1;PMS_P2;Temp;Humidity;BMP_temperature;BMP_pressure;BME280_temperature;BME280_humidity;BME280_pressure;Samples;Min_cycle;Max_cycle;Signal;HPM_P1;HPM_P2
2022/04/20 00:08:18;;;;;;;0.20;0.20;;;13.50;99.90;;;;;;25527299;23;20187;-76
2022/04/20 00:18:23;;;;;;;0.20;0.00;;;13.50;99.90;;;;;;25503132;23;20198;-75
2022/04/20 00:28:27;;;;;;;0.20;0.10;;;13.50;99.90;;;;;;25503127;23;20183;-78
2022/04/20 00:38:32;;;;;;;0.20;0.00;;;13.60;99.90;;;;;;25501789;23;20171;-78
2022/04/20 00:48:38;;;;;;;0.20;0.10;;;13.70;99.90;;;;;;25501247;23;20221;-80
2022/04/20 00:58:44;;;;;;;0.20;0.00;;;13.60;99.90;;;;;;25502993;23;20377;-79
2022/04/20 01:08:48;;;;;;;0.20;0.10;;;13.30;99.90;;;;;;25502847;23;20191;-79
2022/04/20 01:18:54;;;;;;;0.20;0.00;;;13.50;99.90;;;;;;25501740;23;20198;-79
2022/04/20 01:29:02;;;;;;;0.20;0.00;;;13.80;99.90;;;;;;25527894;23;20506;-79
2022/04/20 01:39:06;;;;;;;0.20;0.07;;;13.80;99.90;;;;;;25525297;23;20167;-79
2022/04/20 01:49:11;;;;;;;0.20;0.10;;;13.90;99.90;;;;;;25528678;23;20191;-79
2022/04/20 01:59:15;;;;;;;0.20;0.07;;;14.20;99.90;;;;;;25508999;23;20190;-79
2022/04/20 02:09:20;;;;;;;0.20;0.10;;;14.60;99.90;;;;;;25533474;23;20515;-79
2022/04/20 02:19:24;;;;;;;0.20;0.00;;;14.90;99.90;;;;;;25505016;23;20205;-74
2022/04/20 02:29:29;;;;;;;0.20;0.00;;;14.70;99.90;;;;;;25534525;23;20194;-74
2022/04/20 02:39:35;;;;;;;0.20;0.10;;;14.50;99.90;;;;;;25531241;23;20159;-71
2022/04/20 02:49:40;;;;;;;0.20;0.10;;;14.40;99.90;;;;;;25531899;23;20201;-76
2022/04/20 02:59:44;;;;;;;0.20;0.10;;;14.30;99.90;;;;;;25531526;23;20205;-75
2022/04/20 03:09:49;;;;;;;0.20;0.10;;;14.20;99.90;;;;;;25530817;23;20187;-76
2022/04/20 03:19:53;;;;;;;0.20;0.00;;;14.20;99.90;;;;;;25504477;23;20206;-75
2022/04/20 03:29:58;;;;;;;0.20;0.10;;;14.10;99.90;;;;;;25529153;23;20319;-75
2022/04/20 03:40:03;;;;;;;0.20;0.00;;;14.10;99.90;;;;;;25528859;23;20505;-75
2022/04/20 03:50:10;;;;;;;0.20;0.00;;;14.20;99.90;;;;;;25528480;23;20202;-76
2022/04/20 04:00:15;;;;;;;0.20;0.10;;;14.20;99.90;;;;;;25503271;23;20415;-77
2022/04/20 04:10:20;;;;;;;0.20;0.10;;;14.20;99.90;;;;;;25500833;23;20202;-77
2022/04/20 04:20:24;;;;;;;0.20;0.10;;;14.20;99.90;;;;;;25528231;23;20195;-78
2022/04/20 04:30:30;;;;;;;0.20;0.10;;;14.30;99.90;;;;;;25525195;23;20190;-78
2022/04/20 04:40:34;;;;;;;0.20;0.10;;;14.30;99.90;;;;;;25528009;23;21158;-74
2022/04/20 04:50:39;;;;;;;0.20;0.10;;;14.20;99.90;;;;;;25524187;23;20191;-78
2022/04/20 05:00:43;;;;;;;0.20;0.10;;;14.20;99.90;;;;;;25496887;23;20195;-74
2022/04/20 05:10:48;;;;;;;0.20;0.10;;;14.10;99.90;;;;;;25523115;23;20198;-74
2022/04/20 05:20:52;;;;;;;0.20;0.10;;;14.00;99.90;;;;;;25497989;23;20206;-72
2022/04/20 05:30:57;;;;;;;0.20;0.00;;;14.00;99.90;;;;;;25504520;23;20205;-73
2022/04/20 05:51:23;;;;;;;0.20;0.10;;;14.50;99.90;;;;;;25526164;23;20183;-74
2022/04/20 06:01:27;;;;;;;0.20;0.00;;;14.80;99.90;;;;;;25524407;23;20363;-74
2022/04/20 06:11:33;;;;;;;0.20;0.10;;;15.20;99.90;;;;;;25519142;23;20305;-74
2022/04/20 06:21:36;;;;;;;0.20;0.10;;;15.50;99.90;;;;;;25502077;23;20493;-76
2022/04/20 06:31:44;;;;;;;0.20;0.00;;;15.60;99.90;;;;;;25526203;23;20186;-73
2022/04/20 06:41:48;;;;;;;0.23;0.10;;;15.70;99.90;;;;;;25503764;23;20168;-74
2022/04/20 07:02:15;;;;;;;0.20;0.10;;;15.90;99.90;;;;;;25525611;23;20643;-75
2022/04/20 07:12:21;;;;;;;0.20;0.20;;;15.90;99.90;;;;;;25526133;23;20175;-78
2022/04/20 07:22:30;;;;;;;0.20;0.00;;;16.20;99.90;;;;;;25524401;23;20197;-72
2022/04/20 07:32:35;;;;;;;0.20;0.10;;;16.10;99.90;;;;;;25525409;23;20171;-74
2022/04/20 07:42:39;;;;;;;0.20;0.10;;;16.10;99.90;;;;;;25524570;23;20386;-73
2022/04/20 07:52:47;;;;;;;0.20;0.00;;;16.30;99.90;;;;;;25524060;23;20175;-73
2022/04/20 08:02:51;;;;;;;0.20;0.00;;;16.00;99.90;;;;;;25524928;23;20191;-73
2022/04/20 08:12:57;;;;;;;0.20;0.10;;;16.00;99.90;;;;;;25524753;23;20194;-72
2022/04/20 08:23:00;;;;;;;0.20;0.10;;;16.40;99.90;;;;;;25524045;23;20209;-75
2022/04/20 08:33:07;;;;;;;0.20;0.20;;;16.70;99.90;;;;;;25524016;23;20171;-75
2022/04/20 08:43:12;;;;;;;0.20;0.10;;;16.90;99.90;;;;;;25498853;23;20217;-75
2022/04/20 08:53:20;;;;;;;0.20;0.00;;;16.90;99.90;;;;;;25512224;23;20351;-74
2022/04/20 09:03:24;;;;;;;0.20;0.00;;;16.70;99.90;;;;;;25513771;23;20195;-74
2022/04/20 09:13:38;;;;;;;0.20;0.10;;;16.60;99.90;;;;;;25519924;23;20244;-76
2022/04/20 09:23:42;;;;;;;0.20;0.10;;;16.60;99.90;;;;;;25489261;23;20422;-74
2022/04/20 09:33:50;;;;;;;0.23;0.23;;;16.60;99.90;;;;;;25487158;23;20167;-76
2022/04/20 09:44:09;;;;;;;0.20;0.07;;;16.40;99.90;;;;;;25488635;23;20194;-74
2022/04/20 09:54:27;;;;;;;0.20;0.20;;;16.80;99.90;;;;;;25516749;23;20163;-74
2022/04/20 10:04:31;;;;;;;0.20;0.10;;;17.70;99.90;;;;;;25515196;23;20194;-74
2022/04/20 10:25:02;;;;;;;0.20;0.10;;;17.10;99.90;;;;;;25515146;23;20203;-74
2022/04/20 10:35:08;;;;;;;0.20;0.10;;;16.70;99.90;;;;;;25489015;23;20171;-73
2022/04/20 10:45:15;;;;;;;0.20;0.20;;;16.80;99.90;;;;;;25512156;23;20418;-74
2022/04/20 10:55:24;;;;;;;0.20;0.10;;;17.20;99.90;;;;;;25514042;23;20175;-75
2022/04/20 11:05:29;;;;;;;0.20;0.00;;;17.10;99.90;;;;;;25510070;23;20319;-72
2022/04/20 11:26:20;;;;;;;0.20;0.07;;;17.50;99.90;;;;;;25509707;23;20222;-73
2022/04/20 11:36:25;;;;;;;0.20;0.10;;;17.80;99.90;;;;;;25482759;23;20173;-73
2022/04/20 11:46:31;;;;;;;0.20;0.10;;;17.40;99.90;;;;;;25484986;23;20206;-74
2022/04/20 11:56:41;;;;;;;0.20;0.20;;;16.90;99.90;;;;;;25513437;23;20195;-72
2022/04/20 12:06:46;;;;;;;0.20;0.10;;;16.70;99.90;;;;;;25493628;23;20187;-79
2022/04/20 12:16:53;;;;;;;0.20;0.10;;;16.70;99.90;;;;;;25518680;23;20159;-75
2022/04/20 12:26:58;;;;;;;0.20;0.10;;;16.80;99.90;;;;;;25514877;23;20257;-77
2022/04/20 12:37:07;;;;;;;0.20;0.10;;;16.90;99.90;;;;;;25483674;23;20178;-72
2022/04/20 12:47:33;;;;;;;0.20;0.10;;;16.80;99.90;;;;;;25515890;23;20202;-72
2022/04/20 13:08:13;;;;;;;0.20;0.10;;;17.30;99.90;;;;;;25517421;23;20193;-72
2022/04/20 13:18:18;;;;;;;0.20;0.10;;;17.50;99.90;;;;;;25518374;23;20195;-77
2022/04/20 13:28:22;;;;;;;0.20;0.10;;;17.60;99.90;;;;;;25518823;23;20179;-76
2022/04/20 13:38:28;;;;;;;0.20;0.10;;;17.10;99.90;;;;;;25494043;23;20174;-78
2022/04/20 13:48:32;;;;;;;0.20;0.00;;;16.80;99.90;;;;;;25524583;23;20230;-77
2022/04/20 13:58:37;;;;;;;0.33;0.27;;;16.50;99.90;;;;;;25524733;23;20190;-72
2022/04/20 14:08:41;;;;;;;0.20;0.10;;;16.80;99.90;;;;;;25523105;23;20187;-72
2022/04/20 14:18:47;;;;;;;0.20;0.00;;;19.30;99.90;;;;;;25522316;23;20191;-72
2022/04/20 14:39:13;;;;;;;0.20;0.13;;;17.10;99.90;;;;;;25493687;23;20182;-74
2022/04/20 14:49:17;;;;;;;0.20;0.00;;;17.40;99.90;;;;;;25522275;23;20190;-75
2022/04/20 14:59:23;;;;;;;0.20;0.10;;;20.60;99.90;;;;;;25518932;23;20202;-77
2022/04/20 15:09:27;;;;;;;0.20;0.00;;;19.80;99.90;;;;;;25485191;23;20393;-74
2022/04/20 15:19:32;;;;;;;0.20;0.20;;;19.70;99.90;;;;;;25510041;23;20205;-76
2022/04/20 15:29:36;;;;;;;0.20;0.10;;;20.30;99.90;;;;;;25460619;23;20202;-75
2022/04/20 15:39:41;;;;;;;0.20;0.10;;;20.20;99.90;;;;;;25508465;23;20181;-75
2022/04/20 15:50:01;;;;;;;0.20;0.20;;;18.70;99.90;;;;;;25511593;23;20198;-77
2022/04/20 18:13:37;;;;;;;1.07;0.73;;;15.80;99.90;;;;;;25644997;23;21163;-77
2022/04/20 18:23:41;;;;;;;0.20;0.00;;;15.60;99.90;;;;;;25651684;23;20198;-77
2022/04/20 18:33:46;;;;;;;0.20;0.00;;;15.30;99.90;;;;;;25630920;23;20197;-77
2022/04/20 18:43:50;;;;;;;0.20;0.00;;;14.90;99.90;;;;;;25632050;23;20166;-81
2022/04/20 19:14:40;;;;;;;0.20;0.00;;;14.90;99.90;;;;;;25543869;23;20206;-76
2022/04/20 19:24:43;;;;;;;0.20;0.00;;;14.90;99.90;;;;;;25508097;23;20194;-72
2022/04/20 19:34:50;;;;;;;0.20;0.00;;;14.80;99.90;;;;;;25531206;23;20178;-73
2022/04/20 19:44:54;;;;;;;0.20;0.00;;;14.70;99.90;;;;;;25530998;23;20187;-72
2022/04/20 19:55:00;;;;;;;0.20;0.00;;;14.70;99.90;;;;;;25530376;23;20608;-75
2022/04/20 20:05:24;;;;;;;0.20;0.00;;;14.70;99.90;;;;;;25480854;23;20198;-71
2022/04/20 20:15:29;;;;;;;0.20;0.00;;;14.60;99.90;;;;;;25507935;23;20231;-78
2022/04/20 20:35:56;;;;;;;0.20;0.00;;;14.50;99.90;;;;;;25506528;23;20170;-78
2022/04/20 20:46:00;;;;;;;0.20;0.10;;;14.50;99.90;;;;;;25522419;23;20187;-77
2022/04/20 20:56:06;;;;;;;0.20;0.00;;;14.60;99.90;;;;;;25534019;23;20163;-78
2022/04/20 21:06:10;;;;;;;0.20;0.03;;;14.70;99.90;;;;;;25514016;23;20203;-75
2022/04/20 21:16:15;;;;;;;0.20;0.00;;;14.70;99.90;;;;;;25486304;23;20194;-78
2022/04/20 21:26:20;;;;;;;0.20;0.00;;;14.70;99.90;;;;;;25540162;23;20202;-77
2022/04/20 21:36:25;;;;;;;0.20;0.00;;;14.70;99.90;;;;;;25515240;23;20175;-77
2022/04/20 21:46:29;;;;;;;0.20;0.00;;;14.50;99.90;;;;;;25535821;23;20205;-75
2022/04/20 21:56:35;;;;;;;0.20;0.00;;;14.70;99.90;;;;;;25534330;23;20194;-77
2022/04/20 22:17:09;;;;;;;0.20;0.00;;;14.60;99.90;;;;;;25551545;23;20202;-77
2022/04/20 22:27:13;;;;;;;0.20;0.10;;;14.40;99.90;;;;;;25536304;23;20191;-78
2022/04/20 22:37:18;;;;;;;0.20;0.00;;;14.30;99.90;;;;;;25537862;23;20178;-75
2022/04/20 22:47:23;;;;;;;0.20;0.00;;;14.30;99.90;;;;;;25535875;23;20198;-75
2022/04/20 22:57:28;;;;;;;0.20;0.00;;;14.20;99.90;;;;;;25536519;23;20191;-77
2022/04/20 23:07:32;;;;;;;0.20;0.00;;;14.20;99.90;;;;;;25536919;23;20346;-75
2022/04/20 23:17:37;;;;;;;0.20;0.00;;;14.30;99.90;;;;;;25503617;23;20206;-77
2022/04/20 23:38:04;;;;;;;0.20;0.00;;;14.20;99.90;;;;;;25503461;23;20377;-78
2022/04/20 23:48:10;;;;;;;0.20;0.10;;;14.20;99.90;;;;;;25526307;23;20327;-79
2022/04/20 23:58:15;;;;;;;0.20;0.00;;;14.20;99.90;;;;;;25530778;23;20490;-70
